Time;durP1;ratioP1;P1;durP2;ratioP2;P2;SDS_P1;SDS_P2;PMS_P1;PMS_P2;Temp;Humidity;BMP_temperature;BMP_pressure;BME280_temperature;BME280_humidity;BME280_pressure;Samples;Min_cycle;Max_cycle;Signal;HPM_P1;HPM_P2
2022/06/14 00:01:06;;;;;;;3.30;0.88;;;22.00;55.40;;;;;;4429796;32;20161;-68
2022/06/14 00:03:41;;;;;;;2.83;0.80;;;21.90;55.30;;;;;;4415636;32;20082;-68
2022/06/14 00:06:19;;;;;;;4.10;0.88;;;21.90;55.30;;;;;;4429488;32;20094;-67
2022/06/14 00:08:46;;;;;;;2.22;0.85;;;21.90;55.40;;;;;;4429840;32;20078;-67
2022/06/14 00:11:18;;;;;;;2.67;0.95;;;21.90;55.40;;;;;;4429622;32;20081;-67
2022/06/14 00:13:45;;;;;;;1.60;0.65;;;21.90;55.40;;;;;;4429950;32;20493;-67
2022/06/14 00:16:12;;;;;;;1.70;0.73;;;21.90;55.40;;;;;;4429606;32;20504;-68
2022/06/14 00:18:38;;;;;;;1.98;0.70;;;21.90;55.40;;;;;;4429334;32;20078;-67
2022/06/14 00:21:04;;;;;;;1.90;0.73;;;21.90;55.60;;;;;;4429527;32;20137;-67
2022/06/14 00:23:31;;;;;;;2.08;0.80;;;21.90;55.40;;;;;;4429367;32;20428;-70
2022/06/14 00:25:58;;;;;;;1.48;0.60;;;21.90;55.50;;;;;;4429325;32;20129;-68
2022/06/14 00:28:26;;;;;;;2.55;0.70;;;21.90;55.50;;;;;;4429334;32;20102;-68
2022/06/14 00:30:55;;;;;;;2.58;0.85;;;21.90;55.50;;;;;;4429335;32;20216;-69
2022/06/14 00:33:22;;;;;;;3.75;0.60;;;21.80;55.50;;;;;;4429109;32;20089;-68
2022/06/14 00:35:48;;;;;;;1.95;0.75;;;21.80;55.50;;;;;;4429317;32;20508;-67
2022/06/14 00:38:15;;;;;;;2.42;0.70;;;21.80;55.50;;;;;;4429585;32;20113;-68
2022/06/14 00:40:50;;;;;;;2.00;0.88;;;21.80;55.50;;;;;;4429947;32;20075;-68
2022/06/14 00:43:17;;;;;;;1.40;0.57;;;21.80;55.60;;;;;;4429722;32;20086;-67
2022/06/14 00:45:43;;;;;;;1.85;0.57;;;21.80;55.60;;;;;;4429273;32;20190;-67
2022/06/14 00:48:18;;;;;;;1.80;0.80;;;21.80;55.60;;;;;;4429346;32;20106;-67
2022/06/14 00:51:03;;;;;;;2.67;0.70;;;21.80;55.50;;;;;;4429422;32;20063;-72
2022/06/14 00:53:40;;;;;;;1.88;0.70;;;21.80;55.50;;;;;;4429652;32;20074;-68
2022/06/14 00:56:15;;;;;;;2.25;0.80;;;21.80;55.60;;;;;;4429418;32;20106;-67
2022/06/14 00:58:48;;;;;;;3.15;1.00;;;21.80;55.60;;;;;;4428987;32;20097;-67
2022/06/14 01:01:25;;;;;;;;;;;21.80;56.00;;;;;;4430293;32;20097;-67
2022/06/14 01:03:56;;;;;;;1.33;0.57;;;21.80;55.60;;;;;;4429221;32;19971;-68
2022/06/14 01:06:45;;;;;;;2.15;0.60;;;21.70;55.60;;;;;;4430586;32;20548;-68
2022/06/14 01:09:25;;;;;;;;;;;21.80;55.70;;;;;;4433106;32;20078;-67
2022/06/14 01:12:01;;;;;;;2.17;0.68;;;21.70;55.70;;;;;;4432210;32;19975;-68
2022/06/14 01:14:41;;;;;;;2.38;0.77;;;21.70;55.70;;;;;;4432048;32;20211;-68
2022/06/14 01:17:10;;;;;;;2.13;0.68;;;21.70;55.70;;;;;;4432258;32;20078;-68
2022/06/14 01:19:36;;;;;;;1.90;0.57;;;21.70;55.70;;;;;;4432259;32;20093;-67
2022/06/14 01:22:01;;;;;;;2.28;0.70;;;21.70;55.70;;;;;;4418127;32;20086;-68
2022/06/14 01:24:28;;;;;;;1.63;0.60;;;21.70;55.80;;;;;;4431541;32;20075;-67
2022/06/14 01:26:54;;;;;;;2.25;0.70;;;21.70;55.80;;;;;;4431757;32;20075;-70
2022/06/14 01:29:23;;;;;;;1.60;0.63;;;21.70;55.80;;;;;;4431685;32;20067;-67
2022/06/14 01:31:51;;;;;;;1.42;0.70;;;21.70;55.80;;;;;;4431726;32;20081;-68
2022/06/14 01:34:18;;;;;;;1.33;0.70;;;21.70;55.80;;;;;;4431422;32;20122;-67
2022/06/14 01:36:44;;;;;;;2.17;0.60;;;21.70;55.90;;;;;;4431858;32;20212;-68
2022/06/14 01:39:16;;;;;;;1.80;0.65;;;21.70;55.90;;;;;;4431727;32;20538;-68
2022/06/14 01:41:42;;;;;;;1.52;0.70;;;21.70;55.90;;;;;;4431753;32;20075;-67
2022/06/14 01:44:27;;;;;;;1.35;0.50;;;21.70;55.90;;;;;;4431332;32;20160;-67
2022/06/14 01:47:19;;;;;;;2.33;0.70;;;21.70;55.90;;;;;;4431205;32;20156;-67
2022/06/14 01:53:04;;;;;;;1.25;0.45;;;21.70;55.90;;;;;;4431369;32;20101;-69
2022/06/14 01:55:43;;;;;;;2.63;0.73;;;21.60;55.90;;;;;;4431020;32;20527;-70
2022/06/14 01:58:20;;;;;;;1.42;0.60;;;21.60;55.90;;;;;;4431366;32;20594;-67
2022/06/14 02:01:09;;;;;;;1.23;0.65;;;21.60;55.90;;;;;;4431335;32;20114;-67
2022/06/14 02:07:19;;;;;;;1.80;0.50;;;21.60;55.90;;;;;;4431272;32;20203;-67
2022/06/14 02:09:58;;;;;;;1.13;0.50;;;21.60;55.90;;;;;;4431427;32;20169;-68
2022/06/14 02:12:39;;;;;;;1.75;0.55;;;21.60;55.90;;;;;;4431484;32;20074;-67
2022/06/14 02:15:16;;;;;;;1.65;0.50;;;21.60;55.90;;;;;;4431568;32;20090;-68
2022/06/14 02:17:59;;;;;;;1.45;0.50;;;21.60;56.10;;;;;;4430672;32;20450;-68
2022/06/14 02:20:31;;;;;;;1.45;0.80;;;21.60;56.00;;;;;;4431215;32;20086;-68
2022/06/14 02:23:06;;;;;;;1.75;0.50;;;21.60;56.00;;;;;;4431067;32;20133;-67
2022/06/14 02:25:57;;;;;;;1.40;0.70;;;21.60;56.00;;;;;;4416862;32;20200;-67
2022/06/14 02:28:33;;;;;;;1.60;0.52;;;21.60;56.00;;;;;;4431128;32;20176;-68
2022/06/14 02:31:08;;;;;;;1.15;0.50;;;21.60;56.10;;;;;;4431052;32;20114;-68
2022/06/14 02:33:46;;;;;;;1.10;0.45;;;21.60;56.10;;;;;;4431027;32;20547;-67
2022/06/14 02:36:24;;;;;;;2.20;0.47;;;21.50;56.00;;;;;;4430842;32;20415;-68
2022/06/14 02:39:00;;;;;;;1.05;0.63;;;21.50;56.10;;;;;;4430935;32;20067;-67
2022/06/14 02:41:41;;;;;;;2.22;0.80;;;21.50;56.10;;;;;;4430890;32;20177;-67
2022/06/14 02:44:16;;;;;;;1.30;0.70;;;21.60;56.10;;;;;;4431057;32;20587;-68
2022/06/14 02:46:49;;;;;;;1.63;0.55;;;21.50;56.10;;;;;;4430862;32;20079;-68
2022/06/14 02:49:30;;;;;;;2.15;0.75;;;21.50;56.20;;;;;;4430520;32;20086;-68
2022/06/14 02:52:13;;;;;;;1.30;0.40;;;21.50;56.20;;;;;;4431051;32;20602;-68
2022/06/14 02:54:52;;;;;;;1.45;0.40;;;21.50;56.20;;;;;;4430894;32;20097;-67
2022/06/14 02:57:24;;;;;;;1.48;0.73;;;21.50;56.20;;;;;;4430368;32;20124;-67
2022/06/14 02:59:52;;;;;;;1.53;0.60;;;21.50;56.20;;;;;;4430856;32;20079;-67
2022/06/14 03:02:25;;;;;;;1.30;0.50;;;21.50;56.20;;;;;;4430418;32;20078;-67
2022/06/14 03:05:03;;;;;;;1.77;0.47;;;21.50;56.20;;;;;;4430512;32;20090;-67
2022/06/14 03:07:35;;;;;;;1.38;0.38;;;21.50;56.20;;;;;;4416336;32;20097;-67
2022/06/14 03:10:01;;;;;;;1.25;0.30;;;21.50;56.30;;;;;;4430488;32;20063;-68
2022/06/14 03:12:30;;;;;;;1.60;0.55;;;21.50;56.30;;;;;;4430304;32;20172;-67
2022/06/14 03:15:02;;;;;;;0.90;0.35;;;21.50;57.20;;;;;;4430314;32;20090;-67
2022/06/14 03:18:04;;;;;;;1.38;0.57;;;21.50;56.30;;;;;;4430858;32;20635;-66
2022/06/14 03:20:48;;;;;;;0.93;0.30;;;21.40;56.20;;;;;;4430328;32;20066;-67
2022/06/14 03:23:35;;;;;;;1.63;0.63;;;21.40;56.20;;;;;;4430493;32;20078;-67
2022/06/14 03:26:17;;;;;;;1.30;0.50;;;21.50;56.30;;;;;;4419437;32;20522;-68
2022/06/14 03:28:50;;;;;;;0.95;0.40;;;21.40;56.20;;;;;;4429521;32;20236;-67
2022/06/14 03:31:19;;;;;;;1.17;0.50;;;21.40;56.30;;;;;;4430458;32;20401;-67
2022/06/14 03:33:58;;;;;;;2.05;0.68;;;21.40;56.30;;;;;;4430038;32;20078;-67
2022/06/14 03:36:25;;;;;;;2.28;0.50;;;21.40;56.30;;;;;;4429988;32;20197;-67
2022/06/14 03:38:54;;;;;;;0.63;0.25;;;21.40;56.30;;;;;;4430282;32;20097;-67
2022/06/14 03:41:24;;;;;;;1.48;0.40;;;21.40;56.30;;;;;;4430208;32;20645;-67
2022/06/14 03:43:59;;;;;;;1.27;0.63;;;21.40;56.30;;;;;;4430546;32;20090;-67
2022/06/14 03:46:30;;;;;;;1.95;0.47;;;21.40;56.40;;;;;;4416045;32;20504;-67
2022/06/14 03:49:19;;;;;;;1.30;0.50;;;21.40;56.40;;;;;;4430172;32;20082;-67
2022/06/14 03:51:48;;;;;;;1.40;0.50;;;21.40;56.30;;;;;;4430214;32;20066;-66
2022/06/14 03:54:26;;;;;;;0.80;0.40;;;21.40;56.40;;;;;;4430096;32;20089;-67
2022/06/14 03:57:04;;;;;;;1.38;0.50;;;21.40;56.40;;;;;;4430192;32;20066;-68
2022/06/14 04:00:11;;;;;;;1.35;0.65;;;21.40;56.40;;;;;;4429884;32;20093;-69
2022/06/14 04:03:11;;;;;;;0.77;0.40;;;21.40;56.40;;;;;;4400522;32;20146;-67
2022/06/14 04:05:37;;;;;;;1.15;0.43;;;21.40;56.40;;;;;;4429891;32;20114;-67
2022/06/14 04:08:09;;;;;;;1.48;0.50;;;21.40;56.40;;;;;;4429395;32;20141;-68
2022/06/14 04:10:47;;;;;;;0.82;0.30;;;21.40;56.50;;;;;;4429744;32;20074;-67
2022/06/14 04:13:37;;;;;;;0.95;0.50;;;21.30;56.40;;;;;;4430046;32;20067;-67
2022/06/14 04:16:15;;;;;;;1.00;0.40;;;21.40;56.50;;;;;;4429597;32;20098;-68
2022/06/14 04:18:41;;;;;;;0.88;0.38;;;21.30;56.40;;;;;;4429690;32;20075;-68
2022/06/14 04:21:43;;;;;;;1.42;0.50;;;21.30;56.40;;;;;;4429575;32;20107;-67
2022/06/14 04:24:38;;;;;;;1.58;0.57;;;21.30;56.40;;;;;;4429945;32;20092;-68
2022/06/14 04:27:14;;;;;;;0.90;0.40;;;21.30;56.40;;;;;;4431234;32;20082;-66
2022/06/14 04:29:58;;;;;;;0.75;0.35;;;21.30;56.50;;;;;;4431054;32;20532;-68
2022/06/14 04:32:55;;;;;;;1.20;0.50;;;21.30;56.50;;;;;;4431315;32;20440;-66
2022/06/14 04:35:43;;;;;;;1.45;0.40;;;21.30;56.50;;;;;;4430891;32;20067;-76
2022/06/14 04:38:24;;;;;;;0.68;0.30;;;21.30;56.50;;;;;;4430232;32;20066;-67
2022/06/14 04:41:13;;;;;;;0.95;0.40;;;21.30;56.50;;;;;;4430101;32;20078;-67
2022/06/14 04:43:53;;;;;;;0.73;0.30;;;21.30;56.60;;;;;;4432313;32;20084;-67
2022/06/14 04:46:43;;;;;;;1.02;0.30;;;21.30;56.60;;;;;;4432288;32;20078;-67
2022/06/14 04:49:37;;;;;;;0.82;0.38;;;21.30;56.60;;;;;;4432514;32;20503;-67
2022/06/14 04:52:17;;;;;;;1.70;0.30;;;21.30;56.60;;;;;;4432815;32;20071;-67
2022/06/14 04:54:55;;;;;;;1.83;0.73;;;21.30;56.70;;;;;;4432734;32;20168;-67
2022/06/14 04:57:37;;;;;;;0.88;0.40;;;21.30;56.60;;;;;;4432347;32;20508;-68
2022/06/14 05:00:10;;;;;;;1.20;0.38;;;21.30;56.60;;;;;;4432334;32;20088;-67
2022/06/14 05:02:45;;;;;;;;;;;21.30;56.60;;;;;;4432681;32;20121;-67
2022/06/14 05:05:21;;;;;;;0.98;0.35;;;21.30;56.60;;;;;;4432170;32;20088;-68
2022/06/14 05:07:59;;;;;;;1.20;0.55;;;21.30;56.70;;;;;;4432169;32;20074;-67
2022/06/14 05:10:36;;;;;;;1.33;0.32;;;21.20;57.60;;;;;;4432240;32;20070;-66
2022/06/14 05:13:11;;;;;;;0.60;0.32;;;21.20;56.60;;;;;;4432390;32;20484;-71
2022/06/14 05:15:46;;;;;;;1.15;0.43;;;21.20;56.60;;;;;;4432101;32;20128;-66
2022/06/14 05:18:18;;;;;;;2.00;0.30;;;21.20;56.70;;;;;;4432075;32;20070;-66
2022/06/14 05:20:54;;;;;;;4.45;0.70;;;21.20;56.50;;;;;;4431607;32;20082;-66
2022/06/14 05:23:43;;;;;;;1.52;0.50;;;21.30;56.30;;;;;;4432238;32;20534;-66
2022/06/14 05:26:37;;;;;;;2.67;0.93;;;21.20;55.80;;;;;;4432105;32;20075;-66
2022/06/14 05:29:09;;;;;;;2.60;0.90;;;21.20;55.90;;;;;;4431284;32;20105;-67
2022/06/14 05:31:49;;;;;;;3.03;0.80;;;21.20;55.80;;;;;;4431646;32;20164;-66
2022/06/14 05:34:43;;;;;;;5.20;1.13;;;21.20;56.00;;;;;;4432031;32;20104;-66
2022/06/14 05:37:14;;;;;;;5.03;1.15;;;21.20;55.70;;;;;;4431686;32;20070;-68
2022/06/14 05:39:56;;;;;;;6.90;1.20;;;21.20;55.90;;;;;;4431515;32;20642;-66
2022/06/14 05:42:29;;;;;;;3.40;1.05;;;21.30;55.80;;;;;;4431753;32;20164;-66
2022/06/14 05:44:59;;;;;;;2.63;1.10;;;21.30;55.80;;;;;;4431873;32;20086;-66
2022/06/14 05:47:43;;;;;;;4.35;0.98;;;21.30;55.90;;;;;;4417908;32;20288;-66
2022/06/14 05:50:19;;;;;;;5.25;1.27;;;21.30;55.80;;;;;;4431874;32;20400;-66
2022/06/14 05:53:08;;;;;;;2.38;0.80;;;21.30;55.80;;;;;;4430698;32;20071;-66
2022/06/14 05:55:41;;;;;;;5.45;1.20;;;21.30;55.80;;;;;;4431777;32;20090;-66
2022/06/14 05:58:33;;;;;;;4.30;1.13;;;21.30;55.80;;;;;;4431476;32;20089;-66
2022/06/14 06:01:06;;;;;;;5.65;1.55;;;21.30;55.80;;;;;;4424499;32;20594;-66
2022/06/14 06:03:41;;;;;;;4.35;0.70;;;21.30;55.80;;;;;;4431426;32;20129;-66
2022/06/14 06:06:22;;;;;;;4.82;1.00;;;21.30;55.80;;;;;;4431397;32;20114;-66
2022/06/14 06:09:01;;;;;;;5.00;1.00;;;21.30;55.70;;;;;;4431333;32;20228;-66
2022/06/14 06:11:36;;;;;;;6.45;1.27;;;21.30;55.80;;;;;;4431283;32;20098;-65
2022/06/14 06:14:07;;;;;;;6.07;1.50;;;21.30;56.00;;;;;;4431233;32;20066;-66
2022/06/14 06:17:05;;;;;;;6.53;1.60;;;21.30;55.80;;;;;;4431306;32;20078;-65
2022/06/14 06:19:48;;;;;;;3.00;1.05;;;21.30;55.80;;;;;;4410494;32;20109;-69
2022/06/14 06:22:26;;;;;;;5.40;1.33;;;21.30;55.90;;;;;;4431117;32;20074;-66
2022/06/14 06:24:59;;;;;;;7.95;1.60;;;21.30;55.90;;;;;;4430839;32;20093;-66
2022/06/14 06:27:35;;;;;;;;;;;21.40;56.10;;;;;;4431704;32;20200;-66
2022/06/14 06:30:12;;;;;;;5.03;1.52;;;21.40;56.40;;;;;;4430423;32;20423;-68
2022/06/14 06:32:39;;;;;;;6.63;0.98;;;21.40;56.10;;;;;;4431156;32;20416;-66
2022/06/14 06:35:06;;;;;;;5.00;1.23;;;21.40;56.20;;;;;;4430613;32;20087;-66
2022/06/14 06:37:39;;;;;;;5.80;1.60;;;21.40;56.30;;;;;;4430453;32;20093;-67
2022/06/14 06:40:05;;;;;;;6.60;1.27;;;21.50;56.40;;;;;;4430869;32;20086;-66
2022/06/14 06:42:49;;;;;;;5.00;1.40;;;21.50;56.40;;;;;;4430693;32;20164;-66
2022/06/14 06:45:37;;;;;;;5.47;1.38;;;21.50;56.40;;;;;;4416602;32;20117;-67
2022/06/14 06:48:11;;;;;;;8.02;1.10;;;21.50;56.40;;;;;;4429519;32;20082;-66
2022/06/14 06:50:41;;;;;;;5.68;1.35;;;21.50;56.50;;;;;;4430289;32;20082;-67
2022/06/14 06:53:23;;;;;;;5.57;1.55;;;21.50;56.50;;;;;;4430547;32;20093;-65
2022/06/14 06:55:55;;;;;;;5.03;1.40;;;21.50;56.50;;;;;;4430793;32;20089;-70
2022/06/14 06:58:35;;;;;;;5.30;1.50;;;21.50;56.40;;;;;;4430131;32;20090;-65
2022/06/14 07:01:06;;;;;;;5.50;1.08;;;21.60;56.40;;;;;;4430498;32;20071;-67
2022/06/14 07:03:47;;;;;;;9.93;1.48;;;21.60;56.70;;;;;;4430145;32;20646;-68
2022/06/14 07:06:24;;;;;;;8.60;1.40;;;21.60;57.00;;;;;;4430169;32;20083;-66
2022/06/14 07:09:04;;;;;;;10.88;1.48;;;21.60;57.00;;;;;;4430488;32;20085;-65
2022/06/14 07:12:04;;;;;;;7.78;1.38;;;21.60;57.00;;;;;;4430511;32;20208;-66
2022/06/14 07:14:35;;;;;;;5.53;1.48;;;21.60;57.00;;;;;;4404493;32;20093;-66
2022/06/14 07:17:10;;;;;;;8.73;1.83;;;21.60;57.00;;;;;;4430251;32;20122;-66
2022/06/14 07:19:49;;;;;;;9.00;2.22;;;21.70;56.90;;;;;;4429929;32;20118;-65
2022/06/14 07:22:24;;;;;;;20.33;2.47;;;21.80;56.80;;;;;;4430024;32;20074;-64
2022/06/14 07:25:01;;;;;;;8.50;2.35;;;22.00;56.40;;;;;;4430094;32;20070;-65
2022/06/14 07:27:33;;;;;;;12.43;2.35;;;22.20;56.80;;;;;;4430002;32;20074;-66
2022/06/14 07:30:05;;;;;;;12.02;2.15;;;22.30;55.30;;;;;;4429588;32;20105;-64
2022/06/14 07:32:54;;;;;;;5.47;1.73;;;22.30;55.00;;;;;;4430232;32;20078;-65
2022/06/14 07:35:31;;;;;;;7.13;1.80;;;22.30;54.90;;;;;;4430012;32;20089;-64
2022/06/14 07:38:33;;;;;;;5.28;1.48;;;22.30;55.00;;;;;;4429802;32;20082;-64
2022/06/14 07:41:03;;;;;;;7.95;1.90;;;22.20;55.00;;;;;;4429797;32;20086;-64
2022/06/14 07:43:45;;;;;;;4.57;1.60;;;22.20;55.20;;;;;;4430131;32;20156;-65
2022/06/14 07:46:18;;;;;;;9.50;2.08;;;22.20;55.10;;;;;;4429842;32;20508;-64
2022/06/14 07:48:57;;;;;;;4.38;1.60;;;22.20;55.00;;;;;;4429714;32;20104;-64
2022/06/14 07:51:45;;;;;;;9.68;1.70;;;22.10;54.90;;;;;;4429765;32;20216;-65
2022/06/14 07:54:22;;;;;;;6.93;1.73;;;22.20;54.60;;;;;;4429776;32;20082;-64
2022/06/14 07:56:54;;;;;;;5.32;1.50;;;22.10;54.50;;;;;;4429794;32;20071;-65
2022/06/14 07:59:27;;;;;;;6.20;1.50;;;22.10;54.40;;;;;;4429959;32;20219;-65
2022/06/14 08:02:00;;;;;;;5.13;1.25;;;22.10;54.10;;;;;;4429715;32;20066;-65
2022/06/14 08:04:34;;;;;;;6.15;1.55;;;22.10;54.00;;;;;;4430038;32;20066;-65
2022/06/14 08:07:17;;;;;;;5.05;1.52;;;22.10;53.60;;;;;;4429552;32;20590;-68
2022/06/14 08:10:15;;;;;;;2.65;1.10;;;22.10;53.30;;;;;;4429940;32;20066;-67
2022/06/14 08:13:01;;;;;;;3.97;1.02;;;22.00;53.30;;;;;;4415993;32;20144;-65
2022/06/14 08:15:49;;;;;;;4.32;1.10;;;22.00;53.00;;;;;;4429184;32;20082;-64
2022/06/14 08:18:18;;;;;;;5.70;0.82;;;22.10;52.80;;;;;;4429817;32;20075;-65
2022/06/14 08:20:59;;;;;;;3.55;0.90;;;22.00;52.80;;;;;;4429141;32;20093;-65
2022/06/14 08:23:34;;;;;;;3.80;1.10;;;22.00;52.70;;;;;;4429337;32;20113;-65
2022/06/14 08:26:12;;;;;;;8.10;1.33;;;22.00;52.70;;;;;;4429770;32;20141;-64
2022/06/14 08:28:50;;;;;;;4.68;1.00;;;22.00;52.50;;;;;;4429433;32;20110;-64
2022/06/14 08:31:26;;;;;;;3.85;0.90;;;22.00;52.50;;;;;;4429837;32;20074;-64
2022/06/14 08:33:55;;;;;;;5.20;0.80;;;22.00;52.30;;;;;;4429562;32;20220;-64
2022/06/14 08:36:27;;;;;;;5.10;1.60;;;21.90;52.20;;;;;;4429349;32;20074;-64
2022/06/14 08:38:57;;;;;;;3.33;0.80;;;21.90;52.40;;;;;;4429704;32;20130;-64
2022/06/14 08:41:25;;;;;;;5.40;0.95;;;21.90;52.30;;;;;;4429355;32;20642;-64
2022/06/14 08:43:58;;;;;;;4.65;1.10;;;22.00;52.30;;;;;;4429110;32;20082;-65
2022/06/14 08:46:58;;;;;;;2.45;0.95;;;22.00;52.10;;;;;;4429673;32;20216;-65
2022/06/14 08:49:43;;;;;;;4.25;0.85;;;22.00;51.80;;;;;;4429540;32;20074;-64
2022/06/14 08:52:12;;;;;;;4.85;1.17;;;22.00;51.70;;;;;;4429255;32;20102;-65
2022/06/14 08:54:56;;;;;;;4.05;1.17;;;21.90;51.80;;;;;;4429481;32;20264;-64
2022/06/14 08:57:49;;;;;;;4.65;1.33;;;21.90;51.40;;;;;;4429527;32;20082;-65
2022/06/14 09:00:27;;;;;;;4.15;1.08;;;22.00;51.30;;;;;;4429468;32;20208;-64
2022/06/14 09:03:22;;;;;;;4.55;1.08;;;22.00;51.40;;;;;;4429563;32;20081;-68
2022/06/14 09:06:20;;;;;;;3.67;1.20;;;22.00;51.00;;;;;;4429422;32;20225;-66
2022/06/14 09:08:54;;;;;;;7.13;1.27;;;22.00;51.00;;;;;;4429132;32;20227;-67
2022/06/14 09:11:43;;;;;;;2.47;0.90;;;21.90;51.20;;;;;;4429201;32;20216;-64
2022/06/14 09:14:32;;;;;;;2.55;0.90;;;22.00;51.20;;;;;;4418204;32;20090;-65
2022/06/14 09:17:04;;;;;;;3.63;1.15;;;21.90;51.10;;;;;;4421045;32;20103;-65
2022/06/14 09:20:03;;;;;;;1.95;0.80;;;21.90;51.00;;;;;;4429256;32;20086;-66
2022/06/14 09:22:46;;;;;;;7.03;1.40;;;21.90;51.20;;;;;;4429037;32;20192;-64
2022/06/14 09:25:37;;;;;;;4.55;1.00;;;22.00;51.20;;;;;;4429287;32;20071;-65
2022/06/14 09:28:09;;;;;;;6.43;1.23;;;21.90;51.00;;;;;;4430861;32;20066;-65
2022/06/14 09:30:59;;;;;;;4.47;0.90;;;21.90;51.20;;;;;;4431283;32;20555;-65
2022/06/14 09:33:46;;;;;;;4.03;1.13;;;22.00;51.30;;;;;;4431968;32;20066;-65
2022/06/14 09:36:27;;;;;;;3.13;1.20;;;21.90;51.20;;;;;;4431870;32;20515;-66
2022/06/14 09:39:01;;;;;;;4.82;1.35;;;21.90;51.20;;;;;;4431559;32;20283;-66
2022/06/14 09:41:59;;;;;;;;;;;21.90;51.30;;;;;;4432311;32;20070;-66
2022/06/14 09:44:48;;;;;;;4.30;1.00;;;21.90;51.50;;;;;;4397139;32;19983;-65
2022/06/14 09:47:41;;;;;;;2.75;1.10;;;21.90;51.70;;;;;;4431722;32;20516;-69
2022/06/14 09:50:35;;;;;;;6.00;1.15;;;21.90;51.60;;;;;;4431559;32;20094;-65
2022/06/14 09:53:27;;;;;;;1.73;0.85;;;21.90;51.60;;;;;;4431517;32;20559;-66
2022/06/14 09:56:05;;;;;;;1.55;0.82;;;22.00;51.70;;;;;;4423237;32;20520;-66
2022/06/14 09:59:09;;;;;;;1.80;0.77;;;22.00;51.80;;;;;;4431144;32;20114;-66
2022/06/14 10:01:43;;;;;;;3.40;0.98;;;22.00;52.00;;;;;;4407314;32;20086;-71
2022/06/14 10:04:24;;;;;;;2.22;0.70;;;22.00;52.00;;;;;;4431439;32;20228;-66
2022/06/14 10:06:53;;;;;;;3.10;0.90;;;22.00;52.10;;;;;;4430882;32;20074;-66
2022/06/14 10:09:35;;;;;;;3.03;1.15;;;22.00;52.00;;;;;;4431078;32;20412;-66
2022/06/14 10:12:22;;;;;;;3.97;1.05;;;22.00;52.10;;;;;;4431517;32;20587;-68
2022/06/14 10:15:13;;;;;;;3.08;1.02;;;22.00;52.10;;;;;;4431249;32;20103;-66
2022/06/14 10:17:54;;;;;;;3.67;0.80;;;22.00;52.10;;;;;;4431250;32;20122;-66
2022/06/14 10:20:34;;;;;;;4.15;1.13;;;21.90;52.20;;;;;;4430979;32;20094;-66
2022/06/14 10:23:31;;;;;;;2.75;1.00;;;21.90;52.30;;;;;;4431083;32;20209;-66
2022/06/14 10:29:30;;;;;;;2.40;0.93;;;21.90;52.50;;;;;;4430673;32;20583;-66
2022/06/14 10:32:30;;;;;;;4.43;0.93;;;21.90;52.60;;;;;;4430823;32;20144;-68
2022/06/14 10:35:10;;;;;;;6.85;1.10;;;21.80;52.60;;;;;;4417125;32;20105;-66
2022/06/14 10:37:58;;;;;;;4.50;1.10;;;21.80;53.00;;;;;;4430769;32;20180;-66
2022/06/14 10:40:56;;;;;;;4.35;1.08;;;21.80;52.90;;;;;;4430384;32;20122;-66
2022/06/14 10:43:34;;;;;;;4.13;1.13;;;21.80;53.00;;;;;;4431024;32;20067;-66
2022/06/14 10:46:21;;;;;;;4.97;1.20;;;21.80;53.00;;;;;;4430093;32;20507;-68
2022/06/14 10:48:53;;;;;;;5.28;1.48;;;21.70;53.00;;;;;;4430854;32;20097;-66
2022/06/14 10:51:38;;;;;;;3.75;1.20;;;21.70;53.10;;;;;;4430594;32;20086;-66
2022/06/14 10:54:24;;;;;;;3.53;1.13;;;21.70;53.00;;;;;;4430620;32;20062;-66
2022/06/14 10:57:11;;;;;;;4.80;1.08;;;21.70;53.20;;;;;;4430821;32;20082;-66
2022/06/14 11:00:02;;;;;;;5.50;1.15;;;21.70;53.10;;;;;;4430204;32;20420;-66
2022/06/14 11:02:30;;;;;;;4.70;1.05;;;21.70;53.10;;;;;;4430857;32;20543;-66
2022/06/14 11:05:37;;;;;;;2.28;0.90;;;21.60;53.10;;;;;;4430432;32;20083;-66
2022/06/14 11:08:12;;;;;;;4.25;1.13;;;21.70;53.00;;;;;;4429679;32;20093;-66
2022/06/14 11:10:47;;;;;;;4.10;1.00;;;21.60;53.10;;;;;;4429825;32;20110;-67
2022/06/14 11:13:31;;;;;;;2.67;0.88;;;21.70;53.20;;;;;;4430426;32;20488;-66
2022/06/14 11:16:25;;;;;;;4.70;0.93;;;21.60;53.30;;;;;;4430391;32;20083;-66
2022/06/14 11:18:53;;;;;;;4.13;1.10;;;21.70;53.40;;;;;;4430281;32;20174;-66
2022/06/14 11:21:32;;;;;;;7.97;0.98;;;21.60;53.40;;;;;;4429982;32;20524;-66
2022/06/14 11:24:23;;;;;;;2.10;0.90;;;21.70;53.50;;;;;;4430481;32;20074;-66
2022/06/14 11:27:26;;;;;;;3.50;0.90;;;21.70;53.60;;;;;;4429942;32;20081;-66
2022/06/14 11:30:01;;;;;;;4.30;0.95;;;21.70;53.70;;;;;;4429868;32;20217;-66
2022/06/14 11:33:02;;;;;;;2.92;1.13;;;21.70;53.60;;;;;;4429823;32;20075;-66
2022/06/14 11:35:55;;;;;;;2.95;0.82;;;21.70;53.60;;;;;;4430000;32;20134;-66
2022/06/14 11:38:53;;;;;;;4.13;0.93;;;21.70;53.70;;;;;;4430128;32;20080;-66
2022/06/14 11:41:23;;;;;;;3.13;1.00;;;21.70;53.60;;;;;;4429880;32;20508;-66
2022/06/14 11:44:13;;;;;;;4.70;1.23;;;21.70;53.60;;;;;;4429354;32;20086;-66
2022/06/14 11:46:45;;;;;;;3.80;0.90;;;21.70;53.60;;;;;;4429965;32;20105;-68
2022/06/14 11:49:15;;;;;;;3.50;0.80;;;21.70;53.60;;;;;;4429932;32;20097;-66
2022/06/14 11:52:02;;;;;;;2.88;0.90;;;21.70;53.60;;;;;;4429296;32;20101;-66
2022/06/14 11:54:53;;;;;;;5.82;0.90;;;21.80;53.70;;;;;;4429246;32;20495;-65
2022/06/14 11:57:41;;;;;;;2.47;0.90;;;21.70;53.70;;;;;;4429644;32;20102;-66
2022/06/14 12:00:22;;;;;;;3.45;1.15;;;21.80;53.70;;;;;;4429202;32;20208;-66
2022/06/14 12:02:56;;;;;;;2.40;0.90;;;21.80;53.70;;;;;;4416203;32;20408;-66
2022/06/14 12:05:44;;;;;;;2.53;0.77;;;21.80;53.70;;;;;;4429678;32;20176;-66
2022/06/14 12:08:19;;;;;;;1.40;0.70;;;21.80;53.70;;;;;;4429284;32;20523;-65
2022/06/14 12:11:00;;;;;;;4.55;0.93;;;21.80;53.70;;;;;;4429354;32;20133;-65
2022/06/14 12:13:41;;;;;;;5.88;1.10;;;21.80;53.70;;;;;;4429371;32;20078;-66
2022/06/14 12:16:13;;;;;;;8.63;1.08;;;21.80;53.80;;;;;;4429582;32;20132;-66
2022/06/14 12:18:47;;;;;;;2.80;0.95;;;21.90;53.80;;;;;;4429498;32;20236;-65
2022/06/14 12:21:28;;;;;;;1.65;0.73;;;21.80;53.80;;;;;;4429816;32;20054;-65
2022/06/14 12:24:02;;;;;;;3.72;0.57;;;21.90;54.00;;;;;;4429786;32;20619;-67
2022/06/14 12:26:59;;;;;;;;;;;21.80;54.00;;;;;;4430205;32;20071;-65
2022/06/14 12:29:37;;;;;;;2.38;0.80;;;21.80;54.10;;;;;;4416846;32;19987;-66
2022/06/14 12:32:32;;;;;;;1.90;0.65;;;21.80;54.00;;;;;;4429769;32;20284;-65
2022/06/14 12:35:21;;;;;;;3.60;0.80;;;21.80;54.10;;;;;;4429355;32;20165;-66
2022/06/14 12:38:03;;;;;;;2.30;0.73;;;21.80;54.10;;;;;;4429217;32;20062;-68
2022/06/14 12:40:46;;;;;;;2.08;0.75;;;21.80;54.20;;;;;;4429575;32;20539;-66
2022/06/14 12:43:26;;;;;;;1.58;0.60;;;21.80;54.20;;;;;;4429677;32;20125;-65
2022/06/14 12:46:03;;;;;;;2.75;0.70;;;21.80;54.20;;;;;;4429551;32;20074;-66
2022/06/14 12:48:56;;;;;;;1.98;1.05;;;21.80;54.20;;;;;;4429700;32;20208;-70
2022/06/14 12:51:37;;;;;;;3.30;0.82;;;21.90;54.30;;;;;;4429314;32;20071;-66
2022/06/14 12:54:19;;;;;;;2.55;0.80;;;21.90;54.30;;;;;;4429457;32;20533;-65
2022/06/14 12:56:53;;;;;;;3.30;1.00;;;21.80;54.20;;;;;;4429665;32;20074;-65
2022/06/14 12:59:53;;;;;;;5.53;0.93;;;21.90;54.30;;;;;;4429312;32;20113;-65
2022/06/14 13:02:39;;;;;;;2.65;0.75;;;21.80;54.20;;;;;;4426900;32;20110;-65
2022/06/14 13:05:22;;;;;;;7.70;0.77;;;21.80;54.20;;;;;;4431949;32;20164;-65
2022/06/14 13:07:57;;;;;;;2.70;0.83;;;21.80;54.30;;;;;;4432203;32;20078;-66
2022/06/14 13:10:50;;;;;;;1.67;0.65;;;21.80;54.30;;;;;;4432145;32;20085;-65
2022/06/14 13:13:37;;;;;;;1.73;0.97;;;21.90;54.40;;;;;;4432198;32;20093;-65
2022/06/14 13:16:37;;;;;;;2.35;0.70;;;21.90;54.40;;;;;;4431920;32;20228;-66
2022/06/14 13:19:32;;;;;;;3.88;0.90;;;21.90;54.40;;;;;;4431769;32;20168;-65
2022/06/14 13:22:13;;;;;;;2.50;0.90;;;21.80;54.30;;;;;;4431985;32;20054;-66
2022/06/14 13:25:03;;;;;;;5.80;0.93;;;21.80;54.30;;;;;;4431664;32;20075;-65
2022/06/14 13:28:12;;;;;;;5.22;1.15;;;21.80;54.30;;;;;;4431718;32;20106;-66
2022/06/14 13:30:53;;;;;;;2.67;0.90;;;21.80;54.30;;;;;;4431508;32;20114;-67
2022/06/14 13:33:35;;;;;;;2.45;0.75;;;21.80;54.20;;;;;;4432065;32;20173;-65
2022/06/14 13:36:17;;;;;;;2.38;0.77;;;21.80;54.30;;;;;;4432089;32;20078;-65
2022/06/14 13:38:53;;;;;;;3.35;0.60;;;21.80;54.30;;;;;;4431869;32;20105;-65
2022/06/14 13:41:38;;;;;;;4.18;0.93;;;21.80;54.30;;;;;;4431484;32;20463;-66
2022/06/14 13:44:17;;;;;;;5.03;1.38;;;21.80;54.30;;;;;;4431932;32;20082;-65
2022/06/14 13:47:05;;;;;;;4.30;0.95;;;21.80;54.30;;;;;;4431778;32;20480;-65
2022/06/14 13:49:40;;;;;;;5.03;0.80;;;21.90;54.40;;;;;;4431588;32;20070;-65
2022/06/14 13:52:10;;;;;;;2.88;0.57;;;21.80;54.30;;;;;;4431325;32;20138;-65
2022/06/14 13:55:08;;;;;;;2.15;0.95;;;21.90;54.40;;;;;;4431413;32;20090;-65
2022/06/14 13:57:39;;;;;;;1.95;0.75;;;21.90;54.40;;;;;;4431745;32;20079;-66
2022/06/14 14:00:19;;;;;;;1.92;1.00;;;21.90;54.40;;;;;;4431310;32;20066;-66
2022/06/14 14:02:54;;;;;;;3.75;1.23;;;21.80;54.40;;;;;;4431139;32;20089;-66